sensor_id;sensor_type;location;lat;lon;timestamp;temperature;humidity
69464;DHT22;56665;41.106;16.688;2024-01-30T00:00:13;8.46;72.13
69464;DHT22;56665;41.106;16.688;2024-01-30T00:03:18;8.38;72.01
69464;DHT22;56665;41.106;16.688;2024-01-30T00:06:21;8.41;71.93
69464;DHT22;56665;41.106;16.688;2024-01-30T00:09:25;8.53;71.73
69464;DHT22;56665;41.106;16.688;2024-01-30T00:12:29;8.64;71.42
69464;DHT22;56665;41.106;16.688;2024-01-30T00:15:33;8.68;71.57
69464;DHT22;56665;41.106;16.688;2024-01-30T00:18:36;8.64;71.11
69464;DHT22;56665;41.106;16.688;2024-01-30T00:21:40;8.47;71.58
69464;DHT22;56665;41.106;16.688;2024-01-30T00:24:44;8.47;71.98
69464;DHT22;56665;41.106;16.688;2024-01-30T00:27:48;8.47;71.66
69464;DHT22;56665;41.106;16.688;2024-01-30T00:30:52;8.44;71.67
69464;DHT22;56665;41.106;16.688;2024-01-30T00:33:56;8.48;71.67
69464;DHT22;56665;41.106;16.688;2024-01-30T00:36:59;8.53;71.74
69464;DHT22;56665;41.106;16.688;2024-01-30T00:40:03;8.46;71.42
69464;DHT22;56665;41.106;16.688;2024-01-30T00:43:09;8.46;71.85
69464;DHT22;56665;41.106;16.688;2024-01-30T00:46:13;8.48;71.75
69464;DHT22;56665;41.106;16.688;2024-01-30T00:49:17;8.56;71.87
69464;DHT22;56665;41.106;16.688;2024-01-30T00:52:20;8.51;71.64
69464;DHT22;56665;41.106;16.688;2024-01-30T00:55:24;8.47;71.46
69464;DHT22;56665;41.106;16.688;2024-01-30T00:58:28;8.48;72.43
69464;DHT22;56665;41.106;16.688;2024-01-30T01:01:32;8.46;72.41
69464;DHT22;56665;41.106;16.688;2024-01-30T01:04:37;8.36;72.19
69464;DHT22;56665;41.106;16.688;2024-01-30T01:07:41;8.36;72.28
69464;DHT22;56665;41.106;16.688;2024-01-30T01:10:46;8.50;73.45
69464;DHT22;56665;41.106;16.688;2024-01-30T01:13:49;8.64;73.08
69464;DHT22;56665;41.106;16.688;2024-01-30T01:16:53;8.67;71.90
69464;DHT22;56665;41.106;16.688;2024-01-30T01:19:57;8.57;71.44
69464;DHT22;56665;41.106;16.688;2024-01-30T01:23:00;8.46;71.90
69464;DHT22;56665;41.106;16.688;2024-01-30T01:26:04;8.36;72.32
69464;DHT22;56665;41.106;16.688;2024-01-30T01:29:08;8.27;73.55
69464;DHT22;56665;41.106;16.688;2024-01-30T01:32:15;8.30;72.85
69464;DHT22;56665;41.106;16.688;2024-01-30T01:35:18;8.41;72.47
69464;DHT22;56665;41.106;16.688;2024-01-30T01:38:22;8.40;71.94
69464;DHT22;56665;41.106;16.688;2024-01-30T01:41:30;8.41;71.61
69464;DHT22;56665;41.106;16.688;2024-01-30T01:44:34;8.43;71.70
69464;DHT22;56665;41.106;16.688;2024-01-30T01:47:38;8.41;71.55
69464;DHT22;56665;41.106;16.688;2024-01-30T01:50:42;8.34;71.89
69464;DHT22;56665;41.106;16.688;2024-01-30T01:53:46;8.37;72.01
69464;DHT22;56665;41.106;16.688;2024-01-30T01:56:51;8.50;71.98
69464;DHT22;56665;41.106;16.688;2024-01-30T01:59:55;8.61;71.62
69464;DHT22;56665;41.106;16.688;2024-01-30T02:03:00;8.71;71.26
69464;DHT22;56665;41.106;16.688;2024-01-30T02:06:04;8.68;70.91
69464;DHT22;56665;41.106;16.688;2024-01-30T02:09:07;8.47;71.31
69464;DHT22;56665;41.106;16.688;2024-01-30T02:12:13;8.36;71.60
69464;DHT22;56665;41.106;16.688;2024-01-30T02:15:16;8.38;72.04
69464;DHT22;56665;41.106;16.688;2024-01-30T02:18:22;8.47;71.93
69464;DHT22;56665;41.106;16.688;2024-01-30T02:21:42;8.61;71.50
69464;DHT22;56665;41.106;16.688;2024-01-30T02:24:45;8.71;70.99
69464;DHT22;56665;41.106;16.688;2024-01-30T02:27:49;8.60;71.05
69464;DHT22;56665;41.106;16.688;2024-01-30T02:30:53;8.53;71.62
69464;DHT22;56665;41.106;16.688;2024-01-30T02:33:56;8.50;71.73
69464;DHT22;56665;41.106;16.688;2024-01-30T02:37:00;8.47;71.58
69464;DHT22;56665;41.106;16.688;2024-01-30T02:40:05;8.38;71.82
69464;DHT22;56665;41.106;16.688;2024-01-30T02:43:09;8.43;72.06
69464;DHT22;56665;41.106;16.688;2024-01-30T02:46:12;8.63;71.69
69464;DHT22;56665;41.106;16.688;2024-01-30T02:49:16;8.77;71.15
69464;DHT22;56665;41.106;16.688;2024-01-30T02:52:20;8.84;71.02
69464;DHT22;56665;41.106;16.688;2024-01-30T02:55:24;8.83;70.86
69464;DHT22;56665;41.106;16.688;2024-01-30T02:58:28;8.79;71.04
69464;DHT22;56665;41.106;16.688;2024-01-30T03:01:31;8.79;71.04
69464;DHT22;56665;41.106;16.688;2024-01-30T03:04:35;8.78;71.20
69464;DHT22;56665;41.106;16.688;2024-01-30T03:07:39;8.77;71.37
69464;DHT22;56665;41.106;16.688;2024-01-30T03:10:43;8.81;71.18
69464;DHT22;56665;41.106;16.688;2024-01-30T03:13:46;8.94;71.09
69464;DHT22;56665;41.106;16.688;2024-01-30T03:16:50;8.97;71.00
69464;DHT22;56665;41.106;16.688;2024-01-30T03:19:54;8.99;70.84
69464;DHT22;56665;41.106;16.688;2024-01-30T03:23:00;8.94;70.91
69464;DHT22;56665;41.106;16.688;2024-01-30T03:26:04;8.94;71.13
69464;DHT22;56665;41.106;16.688;2024-01-30T03:29:10;9.01;71.01
69464;DHT22;56665;41.106;16.688;2024-01-30T03:32:13;9.20;70.87
69464;DHT22;56665;41.106;16.688;2024-01-30T03:35:19;9.29;70.19
69464;DHT22;56665;41.106;16.688;2024-01-30T03:38:23;9.29;70.18
69464;DHT22;56665;41.106;16.688;2024-01-30T03:41:27;9.23;70.21
69464;DHT22;56665;41.106;16.688;2024-01-30T03:44:31;9.23;70.28
69464;DHT22;56665;41.106;16.688;2024-01-30T03:47:34;9.16;70.35
69464;DHT22;56665;41.106;16.688;2024-01-30T03:50:38;9.15;70.61
69464;DHT22;56665;41.106;16.688;2024-01-30T03:53:43;9.30;70.68
69464;DHT22;56665;41.106;16.688;2024-01-30T03:56:47;9.42;69.84
69464;DHT22;56665;41.106;16.688;2024-01-30T03:59:51;9.42;69.90
69464;DHT22;56665;41.106;16.688;2024-01-30T04:02:55;9.18;70.21
69464;DHT22;56665;41.106;16.688;2024-01-30T04:05:58;9.09;70.69
69464;DHT22;56665;41.106;16.688;2024-01-30T04:09:02;9.01;70.98
69464;DHT22;56665;41.106;16.688;2024-01-30T04:12:07;8.99;71.32
69464;DHT22;56665;41.106;16.688;2024-01-30T04:15:11;8.98;71.24
69464;DHT22;56665;41.106;16.688;2024-01-30T04:18:14;9.02;71.18
69464;DHT22;56665;41.106;16.688;2024-01-30T04:21:18;9.01;71.33
69464;DHT22;56665;41.106;16.688;2024-01-30T04:24:23;8.94;71.54
69464;DHT22;56665;41.106;16.688;2024-01-30T04:27:26;8.89;71.65
69464;DHT22;56665;41.106;16.688;2024-01-30T04:30:30;8.83;71.98
69464;DHT22;56665;41.106;16.688;2024-01-30T04:33:34;8.77;72.36
69464;DHT22;56665;41.106;16.688;2024-01-30T04:36:38;8.84;72.25
69464;DHT22;56665;41.106;16.688;2024-01-30T04:39:43;8.87;72.07
69464;DHT22;56665;41.106;16.688;2024-01-30T04:42:46;8.84;72.25
69464;DHT22;56665;41.106;16.688;2024-01-30T04:45:50;8.83;72.38
69464;DHT22;56665;41.106;16.688;2024-01-30T04:48:54;8.71;72.59
69464;DHT22;56665;41.106;16.688;2024-01-30T04:51:57;8.68;72.78
69464;DHT22;56665;41.106;16.688;2024-01-30T04:55:02;8.68;73.06
69464;DHT22;56665;41.106;16.688;2024-01-30T04:58:06;8.84;72.98
69464;DHT22;56665;41.106;16.688;2024-01-30T05:01:09;8.97;72.67
69464;DHT22;56665;41.106;16.688;2024-01-30T05:04:13;8.87;72.23
69464;DHT22;56665;41.106;16.688;2024-01-30T05:07:17;8.89;72.43
69464;DHT22;56665;41.106;16.688;2024-01-30T05:10:21;8.88;72.78
69464;DHT22;56665;41.106;16.688;2024-01-30T05:13:25;8.84;72.78
69464;DHT22;56665;41.106;16.688;2024-01-30T05:16:29;8.77;73.21
69464;DHT22;56665;41.106;16.688;2024-01-30T05:19:33;8.78;73.29
69464;DHT22;56665;41.106;16.688;2024-01-30T05:22:36;8.87;73.22
69464;DHT22;56665;41.106;16.688;2024-01-30T05:25:40;9.04;72.92
69464;DHT22;56665;41.106;16.688;2024-01-30T05:28:44;9.09;72.64
69464;DHT22;56665;41.106;16.688;2024-01-30T05:31:48;8.98;73.08
69464;DHT22;56665;41.106;16.688;2024-01-30T05:34:51;8.89;73.40
69464;DHT22;56665;41.106;16.688;2024-01-30T05:37:55;8.79;73.67
69464;DHT22;56665;41.106;16.688;2024-01-30T05:40:59;8.64;74.19
69464;DHT22;56665;41.106;16.688;2024-01-30T05:44:03;8.58;74.58
69464;DHT22;56665;41.106;16.688;2024-01-30T05:47:06;8.54;74.84
69464;DHT22;56665;41.106;16.688;2024-01-30T05:50:10;8.54;75.05
69464;DHT22;56665;41.106;16.688;2024-01-30T05:53:14;8.57;75.05
69464;DHT22;56665;41.106;16.688;2024-01-30T05:56:18;8.67;75.01
69464;DHT22;56665;41.106;16.688;2024-01-30T05:59:22;8.74;75.04
69464;DHT22;56665;41.106;16.688;2024-01-30T06:02:25;8.85;74.91
69464;DHT22;56665;41.106;16.688;2024-01-30T06:05:29;8.97;74.74
69464;DHT22;56665;41.106;16.688;2024-01-30T06:08:33;9.01;74.63
69464;DHT22;56665;41.106;16.688;2024-01-30T06:11:36;8.97;74.58
69464;DHT22;56665;41.106;16.688;2024-01-30T06:14:40;8.92;74.68
69464;DHT22;56665;41.106;16.688;2024-01-30T06:17:45;8.94;74.73
69464;DHT22;56665;41.106;16.688;2024-01-30T06:20:49;8.95;74.79
69464;DHT22;56665;41.106;16.688;2024-01-30T06:23:53;9.02;74.69
69464;DHT22;56665;41.106;16.688;2024-01-30T06:26:56;9.19;74.53
69464;DHT22;56665;41.106;16.688;2024-01-30T06:30:01;9.33;73.92
69464;DHT22;56665;41.106;16.688;2024-01-30T06:33:05;9.46;73.40
69464;DHT22;56665;41.106;16.688;2024-01-30T06:36:09;9.56;73.05
69464;DHT22;56665;41.106;16.688;2024-01-30T06:39:12;9.54;72.90
69464;DHT22;56665;41.106;16.688;2024-01-30T06:42:16;9.43;72.97
69464;DHT22;56665;41.106;16.688;2024-01-30T06:45:20;9.40;73.16
69464;DHT22;56665;41.106;16.688;2024-01-30T06:48:24;9.49;73.21
69464;DHT22;56665;41.106;16.688;2024-01-30T06:51:28;9.58;73.12
69464;DHT22;56665;41.106;16.688;2024-01-30T06:54:31;9.68;72.95
69464;DHT22;56665;41.106;16.688;2024-01-30T06:57:36;9.77;72.72
69464;DHT22;56665;41.106;16.688;2024-01-30T07:00:40;9.73;72.74
69464;DHT22;56665;41.106;16.688;2024-01-30T07:03:43;9.75;72.66
69464;DHT22;56665;41.106;16.688;2024-01-30T07:06:47;9.67;72.79
69464;DHT22;56665;41.106;16.688;2024-01-30T07:09:51;9.60;73.35
69464;DHT22;56665;41.106;16.688;2024-01-30T07:13:00;9.57;73.43
69464;DHT22;56665;41.106;16.688;2024-01-30T07:16:04;9.51;73.40
69464;DHT22;56665;41.106;16.688;2024-01-30T07:19:08;9.56;73.57
69464;DHT22;56665;41.106;16.688;2024-01-30T07:22:12;9.57;73.42
69464;DHT22;56665;41.106;16.688;2024-01-30T07:25:16;9.67;73.46
69464;DHT22;56665;41.106;16.688;2024-01-30T07:31:31;9.98;72.66
69464;DHT22;56665;41.106;16.688;2024-01-30T07:34:35;10.07;72.36
69464;DHT22;56665;41.106;16.688;2024-01-30T07:37:39;10.05;72.49
69464;DHT22;56665;41.106;16.688;2024-01-30T07:40:43;9.98;72.82
69464;DHT22;56665;41.106;16.688;2024-01-30T07:43:47;9.95;72.99
69464;DHT22;56665;41.106;16.688;2024-01-30T07:46:50;10.21;72.53
69464;DHT22;56665;41.106;16.688;2024-01-30T07:49:54;10.67;71.45
69464;DHT22;56665;41.106;16.688;2024-01-30T07:53:00;11.21;69.93
69464;DHT22;56665;41.106;16.688;2024-01-30T07:56:04;11.62;68.72
69464;DHT22;56665;41.106;16.688;2024-01-30T07:59:11;11.85;68.22
69464;DHT22;56665;41.106;16.688;2024-01-30T08:02:15;12.18;67.61
69464;DHT22;56665;41.106;16.688;2024-01-30T08:05:19;12.01;67.41
69464;DHT22;56665;41.106;16.688;2024-01-30T08:08:23;12.00;67.76
69464;DHT22;56665;41.106;16.688;2024-01-30T08:11:26;12.61;66.30
69464;DHT22;56665;41.106;16.688;2024-01-30T08:14:32;12.68;66.30
69464;DHT22;56665;41.106;16.688;2024-01-30T08:17:35;12.58;66.27
69464;DHT22;56665;41.106;16.688;2024-01-30T08:20:39;12.41;67.07
69464;DHT22;56665;41.106;16.688;2024-01-30T08:23:43;12.78;66.02
69464;DHT22;56665;41.106;16.688;2024-01-30T08:26:47;12.65;66.41
69464;DHT22;56665;41.106;16.688;2024-01-30T08:29:50;12.80;66.44
69464;DHT22;56665;41.106;16.688;2024-01-30T08:32:54;13.61;64.23
69464;DHT22;56665;41.106;16.688;2024-01-30T08:35:58;14.20;61.99
69464;DHT22;56665;41.106;16.688;2024-01-30T08:39:02;14.57;60.73
69464;DHT22;56665;41.106;16.688;2024-01-30T08:42:06;14.80;60.54
69464;DHT22;56665;41.106;16.688;2024-01-30T08:45:11;14.99;58.72
69464;DHT22;56665;41.106;16.688;2024-01-30T08:48:15;15.15;57.58
69464;DHT22;56665;41.106;16.688;2024-01-30T08:51:18;15.35;57.34
69464;DHT22;56665;41.106;16.688;2024-01-30T08:54:23;15.59;55.96
69464;DHT22;56665;41.106;16.688;2024-01-30T08:57:27;15.87;54.26
69464;DHT22;56665;41.106;16.688;2024-01-30T09:00:33;16.34;52.58
69464;DHT22;56665;41.106;16.688;2024-01-30T09:03:37;16.52;51.32
69464;DHT22;56665;41.106;16.688;2024-01-30T09:06:44;16.62;50.87
69464;DHT22;56665;41.106;16.688;2024-01-30T09:09:48;16.07;50.60
69464;DHT22;56665;41.106;16.688;2024-01-30T09:12:52;16.17;50.50
69464;DHT22;56665;41.106;16.688;2024-01-30T09:15:55;16.42;50.58
69464;DHT22;56665;41.106;16.688;2024-01-30T09:19:00;16.79;49.89
69464;DHT22;56665;41.106;16.688;2024-01-30T09:22:04;17.18;49.45
69464;DHT22;56665;41.106;16.688;2024-01-30T09:25:07;17.54;48.60
69464;DHT22;56665;41.106;16.688;2024-01-30T09:28:11;17.61;47.78
69464;DHT22;56665;41.106;16.688;2024-01-30T09:31:15;17.48;48.62
69464;DHT22;56665;41.106;16.688;2024-01-30T09:34:18;16.79;49.26
69464;DHT22;56665;41.106;16.688;2024-01-30T09:37:22;15.88;51.30
69464;DHT22;56665;41.106;16.688;2024-01-30T09:40:26;16.62;49.96
69464;DHT22;56665;41.106;16.688;2024-01-30T09:43:33;15.73;51.58
69464;DHT22;56665;41.106;16.688;2024-01-30T09:46:38;14.98;53.68
69464;DHT22;56665;41.106;16.688;2024-01-30T09:49:43;14.88;54.28
69464;DHT22;56665;41.106;16.688;2024-01-30T09:52:48;14.89;54.74
69464;DHT22;56665;41.106;16.688;2024-01-30T09:55:53;16.06;52.30
69464;DHT22;56665;41.106;16.688;2024-01-30T09:58:57;16.95;50.70
69464;DHT22;56665;41.106;16.688;2024-01-30T10:02:00;17.54;48.83
69464;DHT22;56665;41.106;16.688;2024-01-30T10:05:04;17.96;47.78
69464;DHT22;56665;41.106;16.688;2024-01-30T10:08:09;18.40;46.53
69464;DHT22;56665;41.106;16.688;2024-01-30T10:11:13;18.51;46.21
69464;DHT22;56665;41.106;16.688;2024-01-30T10:14:16;18.98;46.03
69464;DHT22;56665;41.106;16.688;2024-01-30T10:17:20;18.82;44.92
69464;DHT22;56665;41.106;16.688;2024-01-30T10:20:24;18.58;45.57
69464;DHT22;56665;41.106;16.688;2024-01-30T10:23:29;18.56;45.66
69464;DHT22;56665;41.106;16.688;2024-01-30T10:26:32;17.20;47.97
69464;DHT22;56665;41.106;16.688;2024-01-30T10:29:37;16.86;49.41
69464;DHT22;56665;41.106;16.688;2024-01-30T10:32:40;17.55;48.36
69464;DHT22;56665;41.106;16.688;2024-01-30T10:35:45;18.24;47.25
69464;DHT22;56665;41.106;16.688;2024-01-30T10:38:51;18.94;45.42
69464;DHT22;56665;41.106;16.688;2024-01-30T10:41:56;18.88;45.18
69464;DHT22;56665;41.106;16.688;2024-01-30T10:45:06;18.86;45.37
69464;DHT22;56665;41.106;16.688;2024-01-30T10:48:12;18.98;45.36
69464;DHT22;56665;41.106;16.688;2024-01-30T10:51:16;18.82;44.99
69464;DHT22;56665;41.106;16.688;2024-01-30T10:54:20;18.33;45.92
69464;DHT22;56665;41.106;16.688;2024-01-30T10:57:25;17.95;46.45
69464;DHT22;56665;41.106;16.688;2024-01-30T11:00:30;17.55;47.47
69464;DHT22;56665;41.106;16.688;2024-01-30T11:03:37;17.49;47.19
69464;DHT22;56665;41.106;16.688;2024-01-30T11:06:41;17.52;47.28
69464;DHT22;56665;41.106;16.688;2024-01-30T11:10:07;17.47;47.54
69464;DHT22;56665;41.106;16.688;2024-01-30T11:13:15;17.28;47.85
69464;DHT22;56665;41.106;16.688;2024-01-30T11:16:20;17.24;47.95
69464;DHT22;56665;41.106;16.688;2024-01-30T11:19:30;16.93;49.20
69464;DHT22;56665;41.106;16.688;2024-01-30T11:22:33;16.49;49.23
69464;DHT22;56665;41.106;16.688;2024-01-30T11:25:37;15.98;50.63
69464;DHT22;56665;41.106;16.688;2024-01-30T11:28:41;15.73;50.92
69464;DHT22;56665;41.106;16.688;2024-01-30T11:31:53;15.53;50.36
69464;DHT22;56665;41.106;16.688;2024-01-30T11:34:57;15.47;51.28
69464;DHT22;56665;41.106;16.688;2024-01-30T11:38:02;15.11;51.73
69464;DHT22;56665;41.106;16.688;2024-01-30T11:41:08;15.29;51.27
69464;DHT22;56665;41.106;16.688;2024-01-30T11:44:11;15.62;50.33
69464;DHT22;56665;41.106;16.688;2024-01-30T11:47:16;15.63;49.68
69464;DHT22;56665;41.106;16.688;2024-01-30T11:50:19;15.45;50.39
69464;DHT22;56665;41.106;16.688;2024-01-30T11:53:23;15.69;49.46
69464;DHT22;56665;41.106;16.688;2024-01-30T11:56:27;15.71;49.87
69464;DHT22;56665;41.106;16.688;2024-01-30T11:59:31;16.07;48.93
69464;DHT22;56665;41.106;16.688;2024-01-30T12:02:34;15.60;49.73
69464;DHT22;56665;41.106;16.688;2024-01-30T12:05:38;14.87;51.01
69464;DHT22;56665;41.106;16.688;2024-01-30T12:08:59;14.95;51.10
69464;DHT22;56665;41.106;16.688;2024-01-30T12:12:03;15.42;50.10
69464;DHT22;56665;41.106;16.688;2024-01-30T12:15:07;15.74;49.51
69464;DHT22;56665;41.106;16.688;2024-01-30T12:18:11;16.04;48.69
69464;DHT22;56665;41.106;16.688;2024-01-30T12:21:18;16.11;48.07
69464;DHT22;56665;41.106;16.688;2024-01-30T12:24:22;16.06;48.23
69464;DHT22;56665;41.106;16.688;2024-01-30T12:27:27;15.47;49.48
69464;DHT22;56665;41.106;16.688;2024-01-30T12:30:30;15.35;50.21
69464;DHT22;56665;41.106;16.688;2024-01-30T12:33:35;15.04;50.90
69464;DHT22;56665;41.106;16.688;2024-01-30T12:36:39;15.42;50.36
69464;DHT22;56665;41.106;16.688;2024-01-30T12:39:43;15.18;50.77
69464;DHT22;56665;41.106;16.688;2024-01-30T12:42:47;15.43;50.85
69464;DHT22;56665;41.106;16.688;2024-01-30T12:45:53;15.22;51.38
69464;DHT22;56665;41.106;16.688;2024-01-30T12:48:57;15.34;50.44
69464;DHT22;56665;41.106;16.688;2024-01-30T12:52:01;15.34;50.52
69464;DHT22;56665;41.106;16.688;2024-01-30T12:55:04;14.91;51.37
69464;DHT22;56665;41.106;16.688;2024-01-30T12:58:08;14.16;52.70
69464;DHT22;56665;41.106;16.688;2024-01-30T13:01:12;14.05;53.30
69464;DHT22;56665;41.106;16.688;2024-01-30T13:04:15;14.22;52.50
69464;DHT22;56665;41.106;16.688;2024-01-30T13:07:19;14.44;51.87
69464;DHT22;56665;41.106;16.688;2024-01-30T13:10:24;14.87;51.55
69464;DHT22;56665;41.106;16.688;2024-01-30T13:13:27;14.76;51.32
69464;DHT22;56665;41.106;16.688;2024-01-30T13:16:31;14.80;51.23
69464;DHT22;56665;41.106;16.688;2024-01-30T13:19:35;14.49;51.83
69464;DHT22;56665;41.106;16.688;2024-01-30T13:22:38;14.47;51.87
69464;DHT22;56665;41.106;16.688;2024-01-30T13:25:42;14.36;52.44
69464;DHT22;56665;41.106;16.688;2024-01-30T13:28:46;13.85;53.33
69464;DHT22;56665;41.106;16.688;2024-01-30T13:31:50;13.91;53.46
69464;DHT22;56665;41.106;16.688;2024-01-30T13:34:54;13.70;53.31
69464;DHT22;56665;41.106;16.688;2024-01-30T13:37:57;13.89;53.46
69464;DHT22;56665;41.106;16.688;2024-01-30T13:41:01;13.96;53.36
69464;DHT22;56665;41.106;16.688;2024-01-30T13:44:05;13.51;54.59
69464;DHT22;56665;41.106;16.688;2024-01-30T13:47:09;13.46;55.21
69464;DHT22;56665;41.106;16.688;2024-01-30T13:50:13;13.31;55.35
69464;DHT22;56665;41.106;16.688;2024-01-30T13:53:18;13.43;55.49
69464;DHT22;56665;41.106;16.688;2024-01-30T13:56:22;13.51;55.30
69464;DHT22;56665;41.106;16.688;2024-01-30T13:59:26;13.65;54.84
69464;DHT22;56665;41.106;16.688;2024-01-30T14:02:29;13.57;54.60
69464;DHT22;56665;41.106;16.688;2024-01-30T14:05:33;13.40;55.48
69464;DHT22;56665;41.106;16.688;2024-01-30T14:08:37;13.44;55.05
69464;DHT22;56665;41.106;16.688;2024-01-30T14:11:41;13.30;55.56
69464;DHT22;56665;41.106;16.688;2024-01-30T14:14:45;13.30;55.89
69464;DHT22;56665;41.106;16.688;2024-01-30T14:17:49;13.17;55.75
69464;DHT22;56665;41.106;16.688;2024-01-30T14:20:53;13.12;56.14
69464;DHT22;56665;41.106;16.688;2024-01-30T14:23:57;13.15;56.39
69464;DHT22;56665;41.106;16.688;2024-01-30T14:27:01;13.05;56.31
69464;DHT22;56665;41.106;16.688;2024-01-30T14:30:05;12.82;56.57
69464;DHT22;56665;41.106;16.688;2024-01-30T14:33:10;12.49;57.01
69464;DHT22;56665;41.106;16.688;2024-01-30T14:36:13;12.44;57.35
69464;DHT22;56665;41.106;16.688;2024-01-30T14:39:17;12.48;56.87
69464;DHT22;56665;41.106;16.688;2024-01-30T14:42:22;12.31;57.78
69464;DHT22;56665;41.106;16.688;2024-01-30T14:45:26;12.34;57.64
69464;DHT22;56665;41.106;16.688;2024-01-30T14:48:31;12.44;57.87
69464;DHT22;56665;41.106;16.688;2024-01-30T14:51:34;12.28;57.82
69464;DHT22;56665;41.106;16.688;2024-01-30T14:54:39;12.18;58.13
69464;DHT22;56665;41.106;16.688;2024-01-30T14:57:42;12.04;58.56
69464;DHT22;56665;41.106;16.688;2024-01-30T15:00:48;11.87;58.78
69464;DHT22;56665;41.106;16.688;2024-01-30T15:03:52;11.68;59.15
69464;DHT22;56665;41.106;16.688;2024-01-30T15:06:55;11.56;59.40
69464;DHT22;56665;41.106;16.688;2024-01-30T15:10:00;11.56;59.61
69464;DHT22;56665;41.106;16.688;2024-01-30T15:13:04;11.52;59.69
69464;DHT22;56665;41.106;16.688;2024-01-30T15:16:08;11.44;60.05
69464;DHT22;56665;41.106;16.688;2024-01-30T15:19:11;11.18;60.37
69464;DHT22;56665;41.106;16.688;2024-01-30T15:22:15;11.11;60.65
69464;DHT22;56665;41.106;16.688;2024-01-30T15:25:19;11.07;60.84
69464;DHT22;56665;41.106;16.688;2024-01-30T15:28:36;10.97;61.17
69464;DHT22;56665;41.106;16.688;2024-01-30T15:31:40;10.97;61.38
69464;DHT22;56665;41.106;16.688;2024-01-30T15:34:44;11.01;61.56
69464;DHT22;56665;41.106;16.688;2024-01-30T15:37:48;10.93;61.53
69464;DHT22;56665;41.106;16.688;2024-01-30T15:40:51;10.81;61.76
69464;DHT22;56665;41.106;16.688;2024-01-30T15:43:55;10.76;62.28
69464;DHT22;56665;41.106;16.688;2024-01-30T15:47:20;10.65;62.28
69464;DHT22;56665;41.106;16.688;2024-01-30T15:50:47;10.66;62.57
69464;DHT22;56665;41.106;16.688;2024-01-30T15:54:13;10.63;62.70
69464;DHT22;56665;41.106;16.688;2024-01-30T15:57:36;10.63;62.86
69464;DHT22;56665;41.106;16.688;2024-01-30T16:01:03;10.60;62.88
69464;DHT22;56665;41.106;16.688;2024-01-30T16:04:31;10.53;63.21
69464;DHT22;56665;41.106;16.688;2024-01-30T16:08:00;10.55;63.28
69464;DHT22;56665;41.106;16.688;2024-01-30T16:11:29;10.52;63.26
69464;DHT22;56665;41.106;16.688;2024-01-30T16:15:01;10.46;63.53
69464;DHT22;56665;41.106;16.688;2024-01-30T16:18:30;10.42;63.66
69464;DHT22;56665;41.106;16.688;2024-01-30T16:21:59;10.36;63.80
69464;DHT22;56665;41.106;16.688;2024-01-30T16:25:29;10.36;64.06
69464;DHT22;56665;41.106;16.688;2024-01-30T16:28:58;10.35;64.17
69464;DHT22;56665;41.106;16.688;2024-01-30T16:32:26;10.35;64.04
69464;DHT22;56665;41.106;16.688;2024-01-30T16:36:00;10.32;64.42
69464;DHT22;56665;41.106;16.688;2024-01-30T16:39:28;10.33;64.17
69464;DHT22;56665;41.106;16.688;2024-01-30T16:42:51;10.32;64.20
69464;DHT22;56665;41.106;16.688;2024-01-30T16:46:20;10.28;64.09
69464;DHT22;56665;41.106;16.688;2024-01-30T16:49:49;10.28;64.36
69464;DHT22;56665;41.106;16.688;2024-01-30T16:53:18;10.25;64.90
69464;DHT22;56665;41.106;16.688;2024-01-30T16:56:47;10.14;66.29
69464;DHT22;56665;41.106;16.688;2024-01-30T17:00:16;9.98;67.08
69464;DHT22;56665;41.106;16.688;2024-01-30T17:03:46;9.87;67.49
69464;DHT22;56665;41.106;16.688;2024-01-30T17:07:15;9.81;67.90
69464;DHT22;56665;41.106;16.688;2024-01-30T17:10:43;9.68;68.51
69464;DHT22;56665;41.106;16.688;2024-01-30T17:14:12;9.51;68.83
69464;DHT22;56665;41.106;16.688;2024-01-30T17:17:43;9.30;69.40
69464;DHT22;56665;41.106;16.688;2024-01-30T17:21:17;9.29;69.69
69464;DHT22;56665;41.106;16.688;2024-01-30T17:24:46;9.28;69.76
69464;DHT22;56665;41.106;16.688;2024-01-30T17:28:15;9.30;69.67
69464;DHT22;56665;41.106;16.688;2024-01-30T17:31:44;9.23;69.57
69464;DHT22;56665;41.106;16.688;2024-01-30T17:35:13;9.11;69.93
69464;DHT22;56665;41.106;16.688;2024-01-30T17:38:44;8.99;70.28
69464;DHT22;56665;41.106;16.688;2024-01-30T17:42:12;8.88;70.45
69464;DHT22;56665;41.106;16.688;2024-01-30T17:45:36;8.85;70.58
69464;DHT22;56665;41.106;16.688;2024-01-30T17:49:07;8.81;70.70
69464;DHT22;56665;41.106;16.688;2024-01-30T17:52:35;8.68;70.68
69464;DHT22;56665;41.106;16.688;2024-01-30T17:55:40;8.67;70.92
69464;DHT22;56665;41.106;16.688;2024-01-30T17:58:43;8.60;70.94
69464;DHT22;56665;41.106;16.688;2024-01-30T18:01:47;8.51;70.81
69464;DHT22;56665;41.106;16.688;2024-01-30T18:04:51;8.38;70.78
69464;DHT22;56665;41.106;16.688;2024-01-30T18:07:55;8.29;70.83
69464;DHT22;56665;41.106;16.688;2024-01-30T18:10:58;8.17;70.92
69464;DHT22;56665;41.106;16.688;2024-01-30T18:14:02;8.10;71.08
69464;DHT22;56665;41.106;16.688;2024-01-30T18:17:06;8.05;71.08
69464;DHT22;56665;41.106;16.688;2024-01-30T18:20:10;7.95;71.23
69464;DHT22;56665;41.106;16.688;2024-01-30T18:23:15;7.95;71.57
69464;DHT22;56665;41.106;16.688;2024-01-30T18:26:19;7.95;71.69
69464;DHT22;56665;41.106;16.688;2024-01-30T18:29:22;7.89;71.83
69464;DHT22;56665;41.106;16.688;2024-01-30T18:32:26;7.81;71.82
69464;DHT22;56665;41.106;16.688;2024-01-30T18:35:33;7.77;71.84
69464;DHT22;56665;41.106;16.688;2024-01-30T18:38:37;7.65;72.10
69464;DHT22;56665;41.106;16.688;2024-01-30T18:41:41;7.54;72.43
69464;DHT22;56665;41.106;16.688;2024-01-30T18:44:44;7.43;72.74
69464;DHT22;56665;41.106;16.688;2024-01-30T18:47:48;7.40;73.02
69464;DHT22;56665;41.106;16.688;2024-01-30T18:50:52;7.40;73.22
69464;DHT22;56665;41.106;16.688;2024-01-30T18:53:56;7.37;73.37
69464;DHT22;56665;41.106;16.688;2024-01-30T18:56:59;7.44;73.34
69464;DHT22;56665;41.106;16.688;2024-01-30T19:00:04;7.48;73.09
69464;DHT22;56665;41.106;16.688;2024-01-30T19:03:08;7.48;72.74
69464;DHT22;56665;41.106;16.688;2024-01-30T19:06:12;7.51;72.91
69464;DHT22;56665;41.106;16.688;2024-01-30T19:09:15;7.50;72.55
69464;DHT22;56665;41.106;16.688;2024-01-30T19:12:19;7.47;72.50
69464;DHT22;56665;41.106;16.688;2024-01-30T19:15:23;7.47;72.56
69464;DHT22;56665;41.106;16.688;2024-01-30T19:18:26;7.27;72.84
69464;DHT22;56665;41.106;16.688;2024-01-30T19:21:30;7.26;72.96
69464;DHT22;56665;41.106;16.688;2024-01-30T19:24:34;7.24;73.08
69464;DHT22;56665;41.106;16.688;2024-01-30T19:27:38;7.23;73.20
69464;DHT22;56665;41.106;16.688;2024-01-30T19:30:45;7.17;73.61
69464;DHT22;56665;41.106;16.688;2024-01-30T19:33:49;7.16;73.66